SCC: VIR: ST practice one times

Pos Num Class Team Time Gap To 1st Speed --- --- ----- ------------------------------ ---------- ------- ------- ------- 1. 22 ST HART 2:11.655 89.416 2. ...

Pos Num Class Team                                 Time     Gap  To 1st   Speed
--- --- ----- ------------------------------ ---------- ------- ------- -------
 1.  22 ST    HART                             2:11.655                  89.416
 2.  69 ST    SpeedSource                      2:11.899   0.244   0.244  89.250
 3.  95 ST    Turner Motorsport                2:11.932   0.033   0.277  89.228
 4.  01 ST    Georgian Bay Motorsports         2:12.130   0.198   0.475  89.094
 5.  76 ST    Kensai Racing                    2:12.232   0.102   0.577  89.025
 6.  31 ST    i-MOTO Racing                    2:12.279   0.047   0.624  88.994
 7. 111 ST    ICY/ Phoenix Racing              2:12.626   0.347   0.971  88.761
 8.  85 ST    Classic BMW - Plano              2:12.824   0.198   1.169  88.629
 9.  86 ST    Classic BMW - Plano              2:12.923   0.099   1.268  88.563
10.  27 ST    Bill Fenton Motorsports          2:13.096   0.173   1.441  88.447
11. 127 ST    Fountain Motorsports             2:13.216   0.120   1.561  88.368
12.  24 ST    V-Pack Motorsport                2:13.573   0.357   1.918  88.132
13.  53 ST    Predator Auto Sport              2:14.035   0.462   2.380  87.828
14.  58 ST    BSI Racing                       2:14.237   0.202   2.582  87.696
15.  68 ST    SpeedSource                      2:14.349   0.112   2.694  87.623
16. 141 ST    ICY/ Phoenix Racing              2:14.443   0.094   2.788  87.561
17.  74 ST    Kensai Racing                    2:14.639   0.196   2.984  87.434
18.  70 ST    SpeedSource                      2:14.777   0.138   3.122  87.344
19.  29 ST    Bill Fenton Motorsports          2:15.266   0.489   3.611  87.029
20. 133 ST    Kinetic Motorsports              2:15.549   0.283   3.894  86.847
21.  56 ST    BSI Racing                       2:15.685   0.136   4.030  86.760
22.  32 ST    i-MOTO Racing                    2:15.853   0.168   4.198  86.652
23.  48 ST    Team Cobalt California           2:15.990   0.137   4.335  86.565
24. 138 ST    GS Motorsports                   2:16.027   0.037   4.372  86.542
25. 174 ST    LRT Racing                       2:16.187   0.160   4.532  86.440
26. 197 ST    RSR Motorsports                  2:16.190   0.003   4.535  86.438
27. 125 ST    Fountain Motorsports             2:16.286   0.096   4.631  86.377
28.  64 ST    T Giovanis Motorsport            2:16.587   0.301   4.932  86.187
29.  63 ST    Roar Racing                      2:16.797   0.210   5.142  86.055
30.  75 ST    Kensai Racing                    2:17.228   0.431   5.573  85.784
31.  00 ST    Georgian Bay Motorsports         2:18.522   1.294   6.867  84.983
32. 198 ST    RSR Motorsports                  2:19.638   1.116   7.983  84.304
33.  62 ST    Roar Racing                      2:19.962   0.324   8.307  84.109
34.  02 ST    Blackforest Motorsports          2:21.508   1.546   9.853  83.190
35.  13 ST    SDS Performance Racing           2:23.308   1.800  11.653  82.145
36.  57 ST    Baglieracing                      No Time
37. 126 ST    Fountain Motorsports              No Time

Write a comment
Show comments
About this article
Series GRANDAM